sensor_id;sensor_type;location;lat;lon;timestamp;pressure;altitude;pressure_sealevel;temperature;humidity
13734;BME280;43298;52.560;13.508;2023-04-10T00:02:16;102051.69;;;3.64;100.00
13734;BME280;43298;52.560;13.508;2023-04-10T00:04:42;102059.34;;;3.63;100.00
13734;BME280;43298;52.560;13.508;2023-04-10T00:07:08;102059.34;;;3.63;100.00
13734;BME280;43298;52.560;13.508;2023-04-10T00:09:33;102059.31;;;3.60;100.00
13734;BME280;43298;52.560;13.508;2023-04-10T00:11:59;102055.09;;;3.63;100.00
13734;BME280;43298;52.560;13.508;2023-04-10T00:14:25;102057.63;;;3.59;100.00
13734;BME280;43298;52.560;13.508;2023-04-10T00:16:51;102052.41;;;3.47;100.00
13734;BME280;43298;52.560;13.508;2023-04-10T00:19:17;102048.94;;;3.40;100.00
13734;BME280;43298;52.560;13.508;2023-04-10T00:21:43;102049.69;;;3.27;100.00
13734;BME280;43298;52.560;13.508;2023-04-10T00:24:09;102048.81;;;3.25;100.00
13734;BME280;43298;52.560;13.508;2023-04-10T00:26:35;102043.75;;;3.30;100.00
13734;BME280;43298;52.560;13.508;2023-04-10T00:29:02;102036.00;;;3.23;100.00
13734;BME280;43298;52.560;13.508;2023-04-10T00:31:29;102035.16;;;3.22;100.00
13734;BME280;43298;52.560;13.508;2023-04-10T00:33:55;102036.91;;;3.26;100.00
13734;BME280;43298;52.560;13.508;2023-04-10T00:36:20;102041.97;;;3.22;100.00
13734;BME280;43298;52.560;13.508;2023-04-10T00:38:47;102037.69;;;3.20;100.00
13734;BME280;43298;52.560;13.508;2023-04-10T00:41:14;102026.56;;;3.13;100.00
13734;BME280;43298;52.560;13.508;2023-04-10T00:43:43;102031.69;;;3.13;100.00
13734;BME280;43298;52.560;13.508;2023-04-10T00:46:10;102032.56;;;3.18;100.00
13734;BME280;43298;52.560;13.508;2023-04-10T00:48:36;102035.06;;;3.12;100.00
13734;BME280;43298;52.560;13.508;2023-04-10T00:51:04;102030.84;;;3.14;100.00
13734;BME280;43298;52.560;13.508;2023-04-10T00:53:31;102026.56;;;3.13;100.00
13734;BME280;43298;52.560;13.508;2023-04-10T00:55:58;102023.94;;;3.07;100.00
13734;BME280;43298;52.560;13.508;2023-04-10T00:58:25;102009.47;;;3.08;100.00
13734;BME280;43298;52.560;13.508;2023-04-10T01:00:51;102006.09;;;3.10;100.00
13734;BME280;43298;52.560;13.508;2023-04-10T01:03:18;102006.06;;;3.07;100.00
13734;BME280;43298;52.560;13.508;2023-04-10T01:16:52;102013.59;;;2.95;100.00
13734;BME280;43298;52.560;13.508;2023-04-10T01:22:04;102019.47;;;2.85;100.00
13734;BME280;43298;52.560;13.508;2023-04-10T01:25:29;102018.63;;;2.85;100.00
13734;BME280;43298;52.560;13.508;2023-04-10T01:28:20;102017.72;;;2.78;100.00
13734;BME280;43298;52.560;13.508;2023-04-10T01:30:56;102027.16;;;2.87;100.00
13734;BME280;43298;52.560;13.508;2023-04-10T01:33:37;102022.00;;;2.84;100.00
13734;BME280;43298;52.560;13.508;2023-04-10T01:36:05;102020.28;;;2.83;100.00
13734;BME280;43298;52.560;13.508;2023-04-10T01:38:32;102015.13;;;2.75;100.00
13734;BME280;43298;52.560;13.508;2023-04-10T01:40:59;102014.22;;;2.73;100.00
13734;BME280;43298;52.560;13.508;2023-04-10T01:43:26;102015.94;;;2.71;100.00
13734;BME280;43298;52.560;13.508;2023-04-10T01:45:54;102021.03;;;2.71;100.00
13734;BME280;43298;52.560;13.508;2023-04-10T01:48:21;102015.13;;;2.75;100.00
13734;BME280;43298;52.560;13.508;2023-04-10T01:50:48;102015.13;;;2.75;100.00
13734;BME280;43298;52.560;13.508;2023-04-10T01:53:15;102017.63;;;2.72;100.00
13734;BME280;43298;52.560;13.508;2023-04-10T01:55:42;102010.81;;;2.71;100.00
13734;BME280;43298;52.560;13.508;2023-04-10T01:58:08;102010.81;;;2.71;100.00
13734;BME280;43298;52.560;13.508;2023-04-10T02:00:42;102009.06;;;2.67;100.00
13734;BME280;43298;52.560;13.508;2023-04-10T02:03:09;102009.88;;;2.62;100.00
13734;BME280;43298;52.560;13.508;2023-04-10T02:08:28;102009.63;;;2.44;100.00
13734;BME280;43298;52.560;13.508;2023-04-10T02:11:06;102004.50;;;2.39;100.00
13734;BME280;43298;52.560;13.508;2023-04-10T02:13:34;102012.13;;;2.36;100.00
13734;BME280;43298;52.560;13.508;2023-04-10T02:16:04;102012.03;;;2.30;100.00
13734;BME280;43298;52.560;13.508;2023-04-10T02:18:34;102008.63;;;2.28;100.00
13734;BME280;43298;52.560;13.508;2023-04-10T02:21:01;102006.84;;;2.23;100.00
13734;BME280;43298;52.560;13.508;2023-04-10T02:23:28;102006.81;;;2.20;100.00
13734;BME280;43298;52.560;13.508;2023-04-10T02:25:54;102008.50;;;2.21;100.00
13734;BME280;43298;52.560;13.508;2023-04-10T02:28:23;102004.34;;;2.29;100.00
13734;BME280;43298;52.560;13.508;2023-04-10T02:30:49;102000.06;;;2.26;100.00
13734;BME280;43298;52.560;13.508;2023-04-10T02:33:15;102003.50;;;2.28;100.00
13734;BME280;43298;52.560;13.508;2023-04-10T02:35:41;102010.28;;;2.26;100.00
13734;BME280;43298;52.560;13.508;2023-04-10T02:38:07;102016.19;;;2.22;100.00
13734;BME280;43298;52.560;13.508;2023-04-10T02:40:34;102014.38;;;2.14;100.00
13734;BME280;43298;52.560;13.508;2023-04-10T02:43:00;102020.25;;;2.08;100.00
13734;BME280;43298;52.560;13.508;2023-04-10T02:45:26;102015.06;;;2.02;100.00
13734;BME280;43298;52.560;13.508;2023-04-10T02:47:52;102015.09;;;2.05;100.00
13734;BME280;43298;52.560;13.508;2023-04-10T02:50:19;102019.38;;;2.08;100.00
13734;BME280;43298;52.560;13.508;2023-04-10T02:52:45;102023.63;;;2.06;100.00
13734;BME280;43298;52.560;13.508;2023-04-10T02:55:10;102021.06;;;2.04;100.00
13734;BME280;43298;52.560;13.508;2023-04-10T02:57:36;102013.25;;;1.94;100.00
13734;BME280;43298;52.560;13.508;2023-04-10T03:00:03;102019.97;;;1.87;100.00
13734;BME280;43298;52.560;13.508;2023-04-10T03:02:29;102025.03;;;1.86;100.00
13734;BME280;43298;52.560;13.508;2023-04-10T03:04:56;102019.19;;;1.93;100.00
13734;BME280;43298;52.560;13.508;2023-04-10T03:07:22;102014.84;;;1.86;100.00
13734;BME280;43298;52.560;13.508;2023-04-10T03:09:48;102016.56;;;1.88;100.00
13734;BME280;43298;52.560;13.508;2023-04-10T03:12:13;102013.91;;;1.79;100.00
13734;BME280;43298;52.560;13.508;2023-04-10T03:14:39;102016.44;;;1.78;100.00
13734;BME280;43298;52.560;13.508;2023-04-10T03:17:05;102022.38;;;1.80;100.00
13734;BME280;43298;52.560;13.508;2023-04-10T03:19:32;102018.06;;;1.74;100.00
13734;BME280;43298;52.560;13.508;2023-04-10T03:21:57;102011.19;;;1.70;100.00
13734;BME280;43298;52.560;13.508;2023-04-10T03:24:23;102014.66;;;1.72;100.00
13734;BME280;43298;52.560;13.508;2023-04-10T03:26:49;102014.75;;;1.81;100.00
13734;BME280;43298;52.560;13.508;2023-04-10T03:29:15;102009.56;;;1.72;100.00
13734;BME280;43298;52.560;13.508;2023-04-10T03:31:43;102018.00;;;1.70;100.00
13734;BME280;43298;52.560;13.508;2023-04-10T03:34:09;102017.03;;;1.63;100.00
13734;BME280;43298;52.560;13.508;2023-04-10T03:36:35;102012.97;;;1.74;100.00
13734;BME280;43298;52.560;13.508;2023-04-10T03:39:01;102018.03;;;1.71;100.00
13734;BME280;43298;52.560;13.508;2023-04-10T03:41:26;102011.19;;;1.69;100.00
13734;BME280;43298;52.560;13.508;2023-04-10T03:43:52;102014.66;;;1.74;100.00
13734;BME280;43298;52.560;13.508;2023-04-10T03:46:18;102024.84;;;1.72;100.00
13734;BME280;43298;52.560;13.508;2023-04-10T03:48:44;102017.88;;;1.61;100.00
13734;BME280;43298;52.560;13.508;2023-04-10T03:51:10;102023.72;;;1.55;100.00
13734;BME280;43298;52.560;13.508;2023-04-10T03:53:35;102018.66;;;1.57;100.00
13734;BME280;43298;52.560;13.508;2023-04-10T03:56:02;102017.88;;;1.61;100.00
13734;BME280;43298;52.560;13.508;2023-04-10T03:58:28;102021.28;;;1.61;100.00
13734;BME280;43298;52.560;13.508;2023-04-10T04:00:54;102020.44;;;1.62;100.00
13734;BME280;43298;52.560;13.508;2023-04-10T04:03:20;102017.94;;;1.65;100.00
13734;BME280;43298;52.560;13.508;2023-04-10T04:05:46;102021.19;;;1.55;100.00
13734;BME280;43298;52.560;13.508;2023-04-10T04:08:12;102017.78;;;1.53;100.00
13734;BME280;43298;52.560;13.508;2023-04-10T04:10:38;102022.88;;;1.53;100.00
13734;BME280;43298;52.560;13.508;2023-04-10T04:13:04;102016.94;;;1.56;100.00
13734;BME280;43298;52.560;13.508;2023-04-10T04:15:30;102013.59;;;1.60;100.00
13734;BME280;43298;52.560;13.508;2023-04-10T04:17:56;102019.41;;;1.51;100.00
13734;BME280;43298;52.560;13.508;2023-04-10T04:20:22;102021.09;;;1.51;100.00
13734;BME280;43298;52.560;13.508;2023-04-10T04:22:48;102024.53;;;1.53;100.00
13734;BME280;43298;52.560;13.508;2023-04-10T04:25:14;102024.66;;;1.60;100.00
13734;BME280;43298;52.560;13.508;2023-04-10T04:27:40;102023.84;;;1.61;100.00
13734;BME280;43298;52.560;13.508;2023-04-10T04:30:06;102029.78;;;1.60;100.00
13734;BME280;43298;52.560;13.508;2023-04-10T04:32:33;102022.97;;;1.61;100.00
13734;BME280;43298;52.560;13.508;2023-04-10T04:34:59;102017.88;;;1.61;100.00
13734;BME280;43298;52.560;13.508;2023-04-10T04:37:24;102016.16;;;1.60;100.00
13734;BME280;43298;52.560;13.508;2023-04-10T04:39:50;102020.44;;;1.62;100.00
13734;BME280;43298;52.560;13.508;2023-04-10T04:42:16;102023.03;;;1.65;100.00
13734;BME280;43298;52.560;13.508;2023-04-10T04:44:42;102016.31;;;1.72;100.00
13734;BME280;43298;52.560;13.508;2023-04-10T04:47:08;102030.03;;;1.80;100.00
13734;BME280;43298;52.560;13.508;2023-04-10T04:49:34;102022.44;;;1.83;100.00
13734;BME280;43298;52.560;13.508;2023-04-10T04:52:00;102029.28;;;1.87;100.00
13734;BME280;43298;52.560;13.508;2023-04-10T04:54:25;102027.69;;;1.92;100.00
13734;BME280;43298;52.560;13.508;2023-04-10T04:56:51;102027.75;;;1.96;100.00
13734;BME280;43298;52.560;13.508;2023-04-10T04:59:17;102034.63;;;2.02;100.00
13734;BME280;43298;52.560;13.508;2023-04-10T05:01:43;102028.75;;;2.07;100.00
13734;BME280;43298;52.560;13.508;2023-04-10T05:04:08;102023.69;;;2.12;100.00
13734;BME280;43298;52.560;13.508;2023-04-10T05:06:34;102031.53;;;2.24;100.00
13734;BME280;43298;52.560;13.508;2023-04-10T05:09:00;102029.03;;;2.31;100.00
13734;BME280;43298;52.560;13.508;2023-04-10T05:11:26;102028.31;;;2.40;100.00
13734;BME280;43298;52.560;13.508;2023-04-10T05:13:52;102029.28;;;2.49;100.00
13734;BME280;43298;52.560;13.508;2023-04-10T05:16:18;102024.31;;;2.61;100.00
13734;BME280;43298;52.560;13.508;2023-04-10T05:18:44;102025.34;;;2.77;100.00
13734;BME280;43298;52.560;13.508;2023-04-10T05:21:10;102028.91;;;2.92;100.00
13734;BME280;43298;52.560;13.508;2023-04-10T05:23:36;102023.91;;;3.03;100.00
13734;BME280;43298;52.560;13.508;2023-04-10T05:26:02;102024.91;;;3.18;100.00
13734;BME280;43298;52.560;13.508;2023-04-10T05:28:28;102029.28;;;3.30;100.00
13734;BME280;43298;52.560;13.508;2023-04-10T05:30:54;102032.78;;;3.41;100.00
13734;BME280;43298;52.560;13.508;2023-04-10T05:33:20;102037.13;;;3.56;100.00
13734;BME280;43298;52.560;13.508;2023-04-10T05:35:46;102035.53;;;3.70;100.00
13734;BME280;43298;52.560;13.508;2023-04-10T05:38:11;102032.22;;;3.81;100.00
13734;BME280;43298;52.560;13.508;2023-04-10T05:40:37;102035.69;;;3.94;100.00
13734;BME280;43298;52.560;13.508;2023-04-10T05:43:03;102051.13;;;4.06;100.00
13734;BME280;43298;52.560;13.508;2023-04-10T05:45:29;102056.44;;;4.40;100.00
13734;BME280;43298;52.560;13.508;2023-04-10T05:47:54;102042.03;;;4.75;100.00
13734;BME280;43298;52.560;13.508;2023-04-10T05:50:20;102036.13;;;5.02;100.00
13734;BME280;43298;52.560;13.508;2023-04-10T05:52:46;102027.59;;;5.27;100.00
13734;BME280;43298;52.560;13.508;2023-04-10T05:55:12;102023.34;;;5.47;100.00
13734;BME280;43298;52.560;13.508;2023-04-10T05:57:38;102013.94;;;5.68;100.00
13734;BME280;43298;52.560;13.508;2023-04-10T06:00:05;102020.75;;;5.77;100.00
13734;BME280;43298;52.560;13.508;2023-04-10T06:02:31;102013.91;;;5.92;100.00
13734;BME280;43298;52.560;13.508;2023-04-10T06:04:57;102005.31;;;6.05;100.00
13734;BME280;43298;52.560;13.508;2023-04-10T06:07:23;101994.97;;;6.20;100.00
13734;BME280;43298;52.560;13.508;2023-04-10T06:09:49;101997.47;;;6.46;100.00
13734;BME280;43298;52.560;13.508;2023-04-10T06:12:15;101989.56;;;6.79;100.00
13734;BME280;43298;52.560;13.508;2023-04-10T06:14:41;101990.72;;;7.52;100.00
13734;BME280;43298;52.560;13.508;2023-04-10T06:17:07;101985.25;;;7.82;100.00
13734;BME280;43298;52.560;13.508;2023-04-10T06:19:33;101976.66;;;8.56;100.00
13734;BME280;43298;52.560;13.508;2023-04-10T06:21:58;101966.53;;;9.01;100.00
13734;BME280;43298;52.560;13.508;2023-04-10T06:24:25;101965.09;;;9.36;100.00
13734;BME280;43298;52.560;13.508;2023-04-10T06:26:50;101962.03;;;9.63;100.00
13734;BME280;43298;52.560;13.508;2023-04-10T06:29:16;101953.31;;;9.70;100.00
13734;BME280;43298;52.560;13.508;2023-04-10T06:31:43;101955.56;;;10.29;100.00
13734;BME280;43298;52.560;13.508;2023-04-10T06:34:08;101949.59;;;10.65;100.00
13734;BME280;43298;52.560;13.508;2023-04-10T06:36:34;101957.09;;;10.39;100.00
13734;BME280;43298;52.560;13.508;2023-04-10T06:39:00;101953.00;;;9.85;100.00
13734;BME280;43298;52.560;13.508;2023-04-10T06:41:27;101953.28;;;10.15;100.00
13734;BME280;43298;52.560;13.508;2023-04-10T06:43:53;101950.97;;;10.81;100.00
13734;BME280;43298;52.560;13.508;2023-04-10T06:46:19;101951.41;;;10.63;100.00
13734;BME280;43298;52.560;13.508;2023-04-10T06:48:45;101950.97;;;10.81;100.00
13734;BME280;43298;52.560;13.508;2023-04-10T06:51:10;101949.13;;;10.86;100.00
13734;BME280;43298;52.560;13.508;2023-04-10T06:53:36;101947.84;;;10.27;100.00
13734;BME280;43298;52.560;13.508;2023-04-10T06:56:02;101946.44;;;10.52;100.00
13734;BME280;43298;52.560;13.508;2023-04-10T06:58:29;101948.81;;;10.99;100.00
13734;BME280;43298;52.560;13.508;2023-04-10T07:00:55;101946.97;;;11.03;100.00
13734;BME280;43298;52.560;13.508;2023-04-10T07:03:20;101949.34;;;11.13;100.00
13734;BME280;43298;52.560;13.508;2023-04-10T07:05:46;101943.75;;;11.28;100.00
13734;BME280;43298;52.560;13.508;2023-04-10T07:08:12;101942.84;;;11.64;100.00
13734;BME280;43298;52.560;13.508;2023-04-10T07:10:38;101948.22;;;11.55;100.00
13734;BME280;43298;52.560;13.508;2023-04-10T07:13:04;101950.47;;;11.70;100.00
13734;BME280;43298;52.560;13.508;2023-04-10T07:15:29;101939.28;;;11.99;100.00
13734;BME280;43298;52.560;13.508;2023-04-10T07:17:55;101945.00;;;12.39;100.00
13734;BME280;43298;52.560;13.508;2023-04-10T07:20:21;101938.84;;;12.14;100.00
13734;BME280;43298;52.560;13.508;2023-04-10T07:22:47;101946.84;;;12.36;100.00
13734;BME280;43298;52.560;13.508;2023-04-10T07:25:13;101948.00;;;12.26;100.00
13734;BME280;43298;52.560;13.508;2023-04-10T07:27:39;101965.66;;;12.13;100.00
13734;BME280;43298;52.560;13.508;2023-04-10T07:30:05;101967.59;;;12.06;100.00
13734;BME280;43298;52.560;13.508;2023-04-10T07:32:31;101969.03;;;11.86;100.00
13734;BME280;43298;52.560;13.508;2023-04-10T07:34:59;101959.22;;;12.55;100.00
13734;BME280;43298;52.560;13.508;2023-04-10T07:37:25;101962.00;;;12.77;100.00
13734;BME280;43298;52.560;13.508;2023-04-10T07:39:51;101964.28;;;12.87;100.00
13734;BME280;43298;52.560;13.508;2023-04-10T07:42:16;101963.16;;;12.96;100.00
13734;BME280;43298;52.560;13.508;2023-04-10T07:44:42;101960.22;;;13.06;100.00
13734;BME280;43298;52.560;13.508;2023-04-10T07:47:08;101961.63;;;12.89;100.00
13734;BME280;43298;52.560;13.508;2023-04-10T07:49:34;101956.13;;;12.98;100.00
13734;BME280;43298;52.560;13.508;2023-04-10T07:52:00;101966.31;;;13.31;100.00
13734;BME280;43298;52.560;13.508;2023-04-10T07:54:26;101960.84;;;13.14;100.00
13734;BME280;43298;52.560;13.508;2023-04-10T07:56:52;101953.91;;;12.87;100.00
13734;BME280;43298;52.560;13.508;2023-04-10T07:59:17;101957.03;;;13.24;100.00
13734;BME280;43298;52.560;13.508;2023-04-10T08:01:43;101959.47;;;13.29;100.00
13734;BME280;43298;52.560;13.508;2023-04-10T08:04:09;101958.13;;;13.43;100.00
13734;BME280;43298;52.560;13.508;2023-04-10T08:06:35;101963.81;;;13.54;100.00
13734;BME280;43298;52.560;13.508;2023-04-10T08:09:01;101951.91;;;13.96;100.00
13734;BME280;43298;52.560;13.508;2023-04-10T08:11:34;101953.44;;;14.25;100.00
13734;BME280;43298;52.560;13.508;2023-04-10T08:14:01;101952.59;;;14.47;100.00
13734;BME280;43298;52.560;13.508;2023-04-10T08:16:30;101953.03;;;14.12;100.00
13734;BME280;43298;52.560;13.508;2023-04-10T08:18:57;101955.22;;;14.90;100.00
13734;BME280;43298;52.560;13.508;2023-04-10T08:21:28;101952.66;;;14.89;100.00
13734;BME280;43298;52.560;13.508;2023-04-10T08:23:57;101962.69;;;15.20;100.00
13734;BME280;43298;52.560;13.508;2023-04-10T08:26:24;101959.03;;;15.24;100.00
13734;BME280;43298;52.560;13.508;2023-04-10T08:28:52;101952.00;;;15.47;100.00
13734;BME280;43298;52.560;13.508;2023-04-10T08:31:20;101956.84;;;15.35;100.00
13734;BME280;43298;52.560;13.508;2023-04-10T08:33:47;101954.66;;;15.66;100.00
13734;BME280;43298;52.560;13.508;2023-04-10T08:36:14;101959.25;;;15.61;100.00
13734;BME280;43298;52.560;13.508;2023-04-10T08:38:44;101947.41;;;15.32;100.00
13734;BME280;43298;52.560;13.508;2023-04-10T08:41:18;101951.59;;;15.36;100.00
13734;BME280;43298;52.560;13.508;2023-04-10T08:43:44;101944.66;;;15.57;100.00
13734;BME280;43298;52.560;13.508;2023-04-10T08:46:11;101945.59;;;15.94;100.00
13734;BME280;43298;52.560;13.508;2023-04-10T08:49:02;101948.53;;;15.87;100.00
13734;BME280;43298;52.560;13.508;2023-04-10T08:51:45;101940.00;;;16.02;100.00
13734;BME280;43298;52.560;13.508;2023-04-10T08:54:28;101932.06;;;16.23;100.00
13734;BME280;43298;52.560;13.508;2023-04-10T08:56:55;101929.44;;;16.05;100.00
13734;BME280;43298;52.560;13.508;2023-04-10T08:59:21;101927.59;;;15.88;100.00
13734;BME280;43298;52.560;13.508;2023-04-10T09:01:47;101928.81;;;16.37;100.00
13734;BME280;43298;52.560;13.508;2023-04-10T09:04:14;101920.16;;;16.18;100.00
13734;BME280;43298;52.560;13.508;2023-04-10T09:06:41;101917.97;;;16.46;100.00
13734;BME280;43298;52.560;13.508;2023-04-10T09:09:07;101917.09;;;15.90;100.00
13734;BME280;43298;52.560;13.508;2023-04-10T09:14:34;101906.63;;;16.47;100.00
13734;BME280;43298;52.560;13.508;2023-04-10T09:17:20;101904.75;;;16.30;100.00
13734;BME280;43298;52.560;13.508;2023-04-10T09:22:14;101892.06;;;16.77;100.00
13734;BME280;43298;52.560;13.508;2023-04-10T09:24:43;101892.47;;;16.86;100.00
13734;BME280;43298;52.560;13.508;2023-04-10T09:27:09;101898.28;;;16.39;100.00
13734;BME280;43298;52.560;13.508;2023-04-10T09:29:45;101880.63;;;16.44;100.00
13734;BME280;43298;52.560;13.508;2023-04-10T09:32:37;101882.47;;;16.77;100.00
13734;BME280;43298;52.560;13.508;2023-04-10T09:35:03;101878.31;;;16.73;100.00
13734;BME280;43298;52.560;13.508;2023-04-10T09:37:34;101878.56;;;17.20;100.00
13734;BME280;43298;52.560;13.508;2023-04-10T09:40:01;101866.72;;;17.13;100.00
13734;BME280;43298;52.560;13.508;2023-04-10T09:42:35;101874.81;;;17.08;100.00
13734;BME280;43298;52.560;13.508;2023-04-10T09:45:03;101858.72;;;17.33;100.00
13734;BME280;43298;52.560;13.508;2023-04-10T09:47:29;101848.91;;;17.21;100.00
13734;BME280;43298;52.560;13.508;2023-04-10T09:49:57;101854.06;;;17.05;100.00
13734;BME280;43298;52.560;13.508;2023-04-10T09:52:29;101854.41;;;16.64;100.00
13734;BME280;43298;52.560;13.508;2023-04-10T09:55:00;101851.25;;;17.25;100.00
13734;BME280;43298;52.560;13.508;2023-04-10T09:57:28;101857.28;;;17.10;100.00
13734;BME280;43298;52.560;13.508;2023-04-10T09:59:57;101842.72;;;17.39;100.00
13734;BME280;43298;52.560;13.508;2023-04-10T10:02:27;101841.59;;;18.08;100.00
13734;BME280;43298;52.560;13.508;2023-04-10T10:04:53;101835.78;;;17.38;100.00
13734;BME280;43298;52.560;13.508;2023-04-10T10:07:21;101830.22;;;17.61;100.00
13734;BME280;43298;52.560;13.508;2023-04-10T10:09:51;101825.16;;;17.41;100.00
13734;BME280;43298;52.560;13.508;2023-04-10T10:12:23;101823.41;;;18.05;100.00
13734;BME280;43298;52.560;13.508;2023-04-10T10:15:08;101814.56;;;17.92;97.63
13734;BME280;43298;52.560;13.508;2023-04-10T10:18:23;101818.25;;;18.19;95.72
13734;BME280;43298;52.560;13.508;2023-04-10T10:20:31;101811.88;;;17.45;93.60
13734;BME280;43298;52.560;13.508;2023-04-10T10:22:57;101810.84;;;18.12;94.52
13734;BME280;43298;52.560;13.508;2023-04-10T10:25:24;101807.97;;;17.85;93.43
13734;BME280;43298;52.560;13.508;2023-04-10T10:27:52;101805.69;;;18.10;92.31
13734;BME280;43298;52.560;13.508;2023-04-10T10:30:18;101798.00;;;18.68;89.86
13734;BME280;43298;52.560;13.508;2023-04-10T10:32:45;101796.25;;;18.68;86.23
13734;BME280;43298;52.560;13.508;2023-04-10T10:35:12;101801.28;;;18.26;86.27
13734;BME280;43298;52.560;13.508;2023-04-10T10:37:38;101801.50;;;18.08;87.20
13734;BME280;43298;52.560;13.508;2023-04-10T10:40:48;101791.34;;;17.86;87.88
13734;BME280;43298;52.560;13.508;2023-04-10T10:46:06;101774.19;;;18.27;87.00
13734;BME280;43298;52.560;13.508;2023-04-10T10:48:33;101765.31;;;19.17;86.46
13734;BME280;43298;52.560;13.508;2023-04-10T10:51:00;101755.63;;;19.33;83.57
13734;BME280;43298;52.560;13.508;2023-04-10T10:53:41;101758.31;;;19.59;79.73
13734;BME280;43298;52.560;13.508;2023-04-10T10:58:56;101762.00;;;18.42;80.23
13734;BME280;43298;52.560;13.508;2023-04-10T11:01:23;101755.91;;;18.41;79.51
13734;BME280;43298;52.560;13.508;2023-04-10T11:03:49;101749.59;;;18.45;75.98
13734;BME280;43298;52.560;13.508;2023-04-10T11:06:17;101747.41;;;18.81;79.02
13734;BME280;43298;52.560;13.508;2023-04-10T11:08:50;101743.31;;;19.05;80.91
13734;BME280;43298;52.560;13.508;2023-04-10T11:11:21;101739.38;;;18.98;79.58
13734;BME280;43298;52.560;13.508;2023-04-10T11:19:08;101740.88;;;18.29;78.71
13734;BME280;43298;52.560;13.508;2023-04-10T11:22:01;101729.91;;;18.82;77.03
13734;BME280;43298;52.560;13.508;2023-04-10T11:24:49;101727.41;;;19.50;75.33
13734;BME280;43298;52.560;13.508;2023-04-10T11:27:39;101722.44;;;19.04;73.61
13734;BME280;43298;52.560;13.508;2023-04-10T11:30:33;101712.78;;;18.90;78.58
13734;BME280;43298;52.560;13.508;2023-04-10T11:33:00;101719.00;;;19.31;78.21
13734;BME280;43298;52.560;13.508;2023-04-10T11:35:26;101710.69;;;20.18;75.67
13734;BME280;43298;52.560;13.508;2023-04-10T11:38:08;101712.25;;;19.41;76.56
13734;BME280;43298;52.560;13.508;2023-04-10T11:40:34;101706.31;;;19.10;74.53
13734;BME280;43298;52.560;13.508;2023-04-10T11:43:13;101704.47;;;19.40;71.41
13734;BME280;43298;52.560;13.508;2023-04-10T11:45:39;101708.50;;;19.45;72.38
13734;BME280;43298;52.560;13.508;2023-04-10T11:48:06;101691.63;;;19.21;73.09
13734;BME280;43298;52.560;13.508;2023-04-10T11:50:32;101688.41;;;18.60;74.01
13734;BME280;43298;52.560;13.508;2023-04-10T11:53:00;101686.09;;;18.98;74.10
13734;BME280;43298;52.560;13.508;2023-04-10T11:55:39;101688.09;;;18.37;73.62
13734;BME280;43298;52.560;13.508;2023-04-10T11:58:21;101677.66;;;19.21;74.72
13734;BME280;43298;52.560;13.508;2023-04-10T12:01:04;101679.19;;;18.83;72.50
13734;BME280;43298;52.560;13.508;2023-04-10T12:03:41;101674.50;;;18.88;71.95
13734;BME280;43298;52.560;13.508;2023-04-10T12:06:10;101670.00;;;18.90;71.13
13734;BME280;43298;52.560;13.508;2023-04-10T12:08:41;101658.59;;;19.59;72.07
13734;BME280;43298;52.560;13.508;2023-04-10T12:11:09;101662.31;;;19.15;71.55
13734;BME280;43298;52.560;13.508;2023-04-10T12:13:36;101650.97;;;19.42;68.19
13734;BME280;43298;52.560;13.508;2023-04-10T12:16:11;101646.78;;;19.26;69.99
13734;BME280;43298;52.560;13.508;2023-04-10T12:18:37;101640.63;;;19.80;71.19
13734;BME280;43298;52.560;13.508;2023-04-10T12:21:04;101635.75;;;19.74;69.46
13734;BME280;43298;52.560;13.508;2023-04-10T12:23:31;101634.53;;;19.92;69.05
13734;BME280;43298;52.560;13.508;2023-04-10T12:26:23;101626.03;;;20.65;67.05
13734;BME280;43298;52.560;13.508;2023-04-10T12:28:53;101622.06;;;20.34;66.67
13734;BME280;43298;52.560;13.508;2023-04-10T12:31:35;101622.72;;;19.72;65.82
13734;BME280;43298;52.560;13.508;2023-04-10T12:34:02;101626.16;;;19.34;66.99
13734;BME280;43298;52.560;13.508;2023-04-10T12:36:31;101625.31;;;19.60;67.08
13734;BME280;43298;52.560;13.508;2023-04-10T12:39:01;101611.44;;;19.84;69.25
13734;BME280;43298;52.560;13.508;2023-04-10T12:41:30;101611.34;;;20.50;68.13
13734;BME280;43298;52.560;13.508;2023-04-10T12:44:11;101608.88;;;19.70;66.94
13734;BME280;43298;52.560;13.508;2023-04-10T12:46:38;101600.59;;;19.23;67.58
13734;BME280;43298;52.560;13.508;2023-04-10T12:49:22;101601.25;;;19.92;69.56
13734;BME280;43298;52.560;13.508;2023-04-10T12:51:50;101594.88;;;20.09;65.07
13734;BME280;43298;52.560;13.508;2023-04-10T12:54:31;101580.06;;;20.08;66.45
13734;BME280;43298;52.560;13.508;2023-04-10T12:56:58;101586.94;;;19.45;67.03
13734;BME280;43298;52.560;13.508;2023-04-10T12:59:25;101581.31;;;19.51;65.73
13734;BME280;43298;52.560;13.508;2023-04-10T13:01:52;101575.25;;;19.63;65.51
13734;BME280;43298;52.560;13.508;2023-04-10T13:04:18;101571.88;;;19.48;65.97
13734;BME280;43298;52.560;13.508;2023-04-10T13:06:45;101562.94;;;19.10;67.30
13734;BME280;43298;52.560;13.508;2023-04-10T13:09:12;101562.56;;;18.48;70.09
13734;BME280;43298;52.560;13.508;2023-04-10T13:11:39;101549.59;;;18.03;71.96
13734;BME280;43298;52.560;13.508;2023-04-10T13:14:05;101555.97;;;18.13;74.01
13734;BME280;43298;52.560;13.508;2023-04-10T13:16:31;101544.00;;;18.23;73.10
13734;BME280;43298;52.560;13.508;2023-04-10T13:18:57;101539.66;;;18.92;73.57